sensor_id;sensor_type;location;lat;lon;timestamp;P1;durP1;ratioP1;P2;durP2;ratioP2
47772;SDS011;33534;51.028;13.716;2024-01-30T00:02:15;3.80;;;2.47;;
47772;SDS011;33534;51.028;13.716;2024-01-30T00:04:41;4.70;;;2.20;;
47772;SDS011;33534;51.028;13.716;2024-01-30T00:07:07;5.47;;;2.38;;
47772;SDS011;33534;51.028;13.716;2024-01-30T00:09:32;6.25;;;2.53;;
47772;SDS011;33534;51.028;13.716;2024-01-30T00:11:58;5.47;;;2.20;;
47772;SDS011;33534;51.028;13.716;2024-01-30T00:14:24;4.53;;;2.30;;
47772;SDS011;33534;51.028;13.716;2024-01-30T00:16:50;5.63;;;2.47;;
47772;SDS011;33534;51.028;13.716;2024-01-30T00:19:16;3.38;;;2.28;;
47772;SDS011;33534;51.028;13.716;2024-01-30T00:21:42;4.00;;;2.13;;
47772;SDS011;33534;51.028;13.716;2024-01-30T00:24:07;2.92;;;1.73;;
47772;SDS011;33534;51.028;13.716;2024-01-30T00:26:33;4.25;;;2.20;;
47772;SDS011;33534;51.028;13.716;2024-01-30T00:28:59;5.43;;;2.15;;
47772;SDS011;33534;51.028;13.716;2024-01-30T00:31:24;3.95;;;2.15;;
47772;SDS011;33534;51.028;13.716;2024-01-30T00:33:50;4.63;;;2.22;;
47772;SDS011;33534;51.028;13.716;2024-01-30T00:36:15;3.00;;;1.90;;
47772;SDS011;33534;51.028;13.716;2024-01-30T00:38:41;5.30;;;2.30;;
47772;SDS011;33534;51.028;13.716;2024-01-30T00:41:10;3.50;;;2.05;;
47772;SDS011;33534;51.028;13.716;2024-01-30T00:43:36;4.28;;;2.50;;
47772;SDS011;33534;51.028;13.716;2024-01-30T00:46:02;4.28;;;2.50;;
47772;SDS011;33534;51.028;13.716;2024-01-30T00:48:28;4.10;;;1.90;;
47772;SDS011;33534;51.028;13.716;2024-01-30T00:50:53;3.80;;;1.90;;
47772;SDS011;33534;51.028;13.716;2024-01-30T00:53:19;1.83;;;1.65;;
47772;SDS011;33534;51.028;13.716;2024-01-30T00:55:45;3.83;;;1.77;;
47772;SDS011;33534;51.028;13.716;2024-01-30T00:58:10;3.15;;;2.13;;
47772;SDS011;33534;51.028;13.716;2024-01-30T01:00:36;2.83;;;1.92;;
47772;SDS011;33534;51.028;13.716;2024-01-30T01:03:02;3.83;;;1.85;;
47772;SDS011;33534;51.028;13.716;2024-01-30T01:05:28;6.10;;;2.45;;
47772;SDS011;33534;51.028;13.716;2024-01-30T01:07:54;3.28;;;1.80;;
47772;SDS011;33534;51.028;13.716;2024-01-30T01:10:19;7.93;;;2.45;;
47772;SDS011;33534;51.028;13.716;2024-01-30T01:12:45;6.93;;;2.78;;
47772;SDS011;33534;51.028;13.716;2024-01-30T01:15:11;4.63;;;1.90;;
47772;SDS011;33534;51.028;13.716;2024-01-30T01:17:37;14.40;;;2.17;;
47772;SDS011;33534;51.028;13.716;2024-01-30T01:20:04;4.88;;;1.95;;
47772;SDS011;33534;51.028;13.716;2024-01-30T01:22:31;3.40;;;1.80;;
47772;SDS011;33534;51.028;13.716;2024-01-30T01:24:57;3.13;;;1.88;;
47772;SDS011;33534;51.028;13.716;2024-01-30T01:27:23;4.10;;;2.40;;
47772;SDS011;33534;51.028;13.716;2024-01-30T01:29:48;5.85;;;2.55;;
47772;SDS011;33534;51.028;13.716;2024-01-30T01:32:14;3.92;;;2.20;;
47772;SDS011;33534;51.028;13.716;2024-01-30T01:34:40;2.88;;;1.80;;
47772;SDS011;33534;51.028;13.716;2024-01-30T01:37:05;3.63;;;1.80;;
47772;SDS011;33534;51.028;13.716;2024-01-30T01:39:32;2.00;;;1.65;;
47772;SDS011;33534;51.028;13.716;2024-01-30T01:41:57;4.30;;;1.92;;
47772;SDS011;33534;51.028;13.716;2024-01-30T01:44:23;3.63;;;2.20;;
47772;SDS011;33534;51.028;13.716;2024-01-30T01:46:49;5.50;;;2.20;;
47772;SDS011;33534;51.028;13.716;2024-01-30T01:49:15;4.10;;;2.20;;
47772;SDS011;33534;51.028;13.716;2024-01-30T01:51:45;3.25;;;2.17;;
47772;SDS011;33534;51.028;13.716;2024-01-30T01:54:12;5.72;;;2.00;;
47772;SDS011;33534;51.028;13.716;2024-01-30T01:56:39;4.18;;;1.63;;
47772;SDS011;33534;51.028;13.716;2024-01-30T01:59:06;2.67;;;1.50;;
47772;SDS011;33534;51.028;13.716;2024-01-30T02:01:33;6.18;;;1.85;;
47772;SDS011;33534;51.028;13.716;2024-01-30T02:04:01;2.33;;;1.50;;
47772;SDS011;33534;51.028;13.716;2024-01-30T02:06:27;4.32;;;1.85;;
47772;SDS011;33534;51.028;13.716;2024-01-30T02:08:53;3.88;;;1.75;;
47772;SDS011;33534;51.028;13.716;2024-01-30T02:11:22;4.70;;;1.92;;
47772;SDS011;33534;51.028;13.716;2024-01-30T02:13:48;5.30;;;1.90;;
47772;SDS011;33534;51.028;13.716;2024-01-30T02:16:14;3.42;;;2.03;;
47772;SDS011;33534;51.028;13.716;2024-01-30T02:18:39;4.80;;;1.70;;
47772;SDS011;33534;51.028;13.716;2024-01-30T02:21:10;4.20;;;2.15;;
47772;SDS011;33534;51.028;13.716;2024-01-30T02:23:36;7.97;;;1.67;;
47772;SDS011;33534;51.028;13.716;2024-01-30T02:26:03;3.13;;;2.08;;
47772;SDS011;33534;51.028;13.716;2024-01-30T02:28:28;4.30;;;1.73;;
47772;SDS011;33534;51.028;13.716;2024-01-30T02:30:54;4.75;;;1.65;;
47772;SDS011;33534;51.028;13.716;2024-01-30T02:33:19;2.50;;;1.67;;
47772;SDS011;33534;51.028;13.716;2024-01-30T02:35:47;1.83;;;1.50;;
47772;SDS011;33534;51.028;13.716;2024-01-30T02:38:13;4.13;;;1.88;;
47772;SDS011;33534;51.028;13.716;2024-01-30T02:40:38;3.03;;;1.95;;
47772;SDS011;33534;51.028;13.716;2024-01-30T02:43:04;3.95;;;1.67;;
47772;SDS011;33534;51.028;13.716;2024-01-30T02:45:30;3.65;;;2.17;;
47772;SDS011;33534;51.028;13.716;2024-01-30T02:47:56;1.83;;;1.60;;
47772;SDS011;33534;51.028;13.716;2024-01-30T02:50:21;2.15;;;1.60;;
47772;SDS011;33534;51.028;13.716;2024-01-30T02:52:47;2.72;;;1.95;;
47772;SDS011;33534;51.028;13.716;2024-01-30T02:55:12;2.70;;;1.85;;
47772;SDS011;33534;51.028;13.716;2024-01-30T02:57:38;4.45;;;1.90;;
47772;SDS011;33534;51.028;13.716;2024-01-30T03:00:04;2.70;;;1.83;;
47772;SDS011;33534;51.028;13.716;2024-01-30T03:02:31;4.22;;;1.80;;
47772;SDS011;33534;51.028;13.716;2024-01-30T03:04:57;5.72;;;1.67;;
47772;SDS011;33534;51.028;13.716;2024-01-30T03:07:23;2.33;;;1.58;;
47772;SDS011;33534;51.028;13.716;2024-01-30T03:09:49;2.92;;;1.67;;
47772;SDS011;33534;51.028;13.716;2024-01-30T03:12:14;2.08;;;1.48;;
47772;SDS011;33534;51.028;13.716;2024-01-30T03:14:40;1.33;;;1.23;;
47772;SDS011;33534;51.028;13.716;2024-01-30T03:17:05;1.80;;;1.52;;
47772;SDS011;33534;51.028;13.716;2024-01-30T03:19:31;2.92;;;1.80;;
47772;SDS011;33534;51.028;13.716;2024-01-30T03:21:57;3.15;;;1.50;;
47772;SDS011;33534;51.028;13.716;2024-01-30T03:24:23;4.00;;;1.75;;
47772;SDS011;33534;51.028;13.716;2024-01-30T03:26:48;4.40;;;2.15;;
47772;SDS011;33534;51.028;13.716;2024-01-30T03:29:14;6.45;;;2.30;;
47772;SDS011;33534;51.028;13.716;2024-01-30T03:31:40;2.85;;;1.83;;
47772;SDS011;33534;51.028;13.716;2024-01-30T03:34:06;4.18;;;2.05;;
47772;SDS011;33534;51.028;13.716;2024-01-30T03:36:31;2.83;;;1.92;;
47772;SDS011;33534;51.028;13.716;2024-01-30T03:38:59;5.15;;;1.60;;
47772;SDS011;33534;51.028;13.716;2024-01-30T03:41:25;3.45;;;1.88;;
47772;SDS011;33534;51.028;13.716;2024-01-30T03:43:50;3.70;;;1.48;;
47772;SDS011;33534;51.028;13.716;2024-01-30T03:46:16;1.75;;;1.48;;
47772;SDS011;33534;51.028;13.716;2024-01-30T03:48:42;4.18;;;1.58;;
47772;SDS011;33534;51.028;13.716;2024-01-30T03:51:07;3.35;;;1.55;;
47772;SDS011;33534;51.028;13.716;2024-01-30T03:53:34;2.05;;;1.45;;
47772;SDS011;33534;51.028;13.716;2024-01-30T03:56:00;3.25;;;1.42;;
47772;SDS011;33534;51.028;13.716;2024-01-30T03:58:25;4.30;;;1.90;;
47772;SDS011;33534;51.028;13.716;2024-01-30T04:00:51;2.35;;;1.33;;
47772;SDS011;33534;51.028;13.716;2024-01-30T04:03:17;3.47;;;1.67;;
47772;SDS011;33534;51.028;13.716;2024-01-30T04:05:43;3.38;;;1.95;;
47772;SDS011;33534;51.028;13.716;2024-01-30T04:08:09;2.17;;;1.50;;
47772;SDS011;33534;51.028;13.716;2024-01-30T04:10:35;2.40;;;1.67;;
47772;SDS011;33534;51.028;13.716;2024-01-30T04:13:00;4.10;;;1.65;;
47772;SDS011;33534;51.028;13.716;2024-01-30T04:15:26;2.45;;;1.70;;
47772;SDS011;33534;51.028;13.716;2024-01-30T04:17:54;3.95;;;1.48;;
47772;SDS011;33534;51.028;13.716;2024-01-30T04:20:23;2.10;;;1.40;;
47772;SDS011;33534;51.028;13.716;2024-01-30T04:22:49;1.75;;;1.00;;
47772;SDS011;33534;51.028;13.716;2024-01-30T04:25:15;2.40;;;1.50;;
47772;SDS011;33534;51.028;13.716;2024-01-30T04:27:41;2.95;;;1.58;;
47772;SDS011;33534;51.028;13.716;2024-01-30T04:30:06;3.22;;;1.70;;
47772;SDS011;33534;51.028;13.716;2024-01-30T04:32:32;5.25;;;1.73;;
47772;SDS011;33534;51.028;13.716;2024-01-30T04:34:58;2.38;;;1.40;;
47772;SDS011;33534;51.028;13.716;2024-01-30T04:37:24;5.13;;;1.83;;
47772;SDS011;33534;51.028;13.716;2024-01-30T04:39:50;5.03;;;1.90;;
47772;SDS011;33534;51.028;13.716;2024-01-30T04:42:16;5.35;;;1.27;;
47772;SDS011;33534;51.028;13.716;2024-01-30T04:44:42;3.45;;;2.10;;
47772;SDS011;33534;51.028;13.716;2024-01-30T04:47:07;4.15;;;1.63;;
47772;SDS011;33534;51.028;13.716;2024-01-30T04:49:35;4.05;;;1.50;;
47772;SDS011;33534;51.028;13.716;2024-01-30T04:52:01;6.10;;;1.77;;
47772;SDS011;33534;51.028;13.716;2024-01-30T04:54:27;5.00;;;1.73;;
47772;SDS011;33534;51.028;13.716;2024-01-30T04:56:52;2.88;;;1.30;;
47772;SDS011;33534;51.028;13.716;2024-01-30T04:59:18;6.07;;;1.92;;
47772;SDS011;33534;51.028;13.716;2024-01-30T05:01:44;4.28;;;1.85;;
47772;SDS011;33534;51.028;13.716;2024-01-30T05:04:09;2.80;;;1.30;;
47772;SDS011;33534;51.028;13.716;2024-01-30T05:06:36;2.72;;;1.48;;
47772;SDS011;33534;51.028;13.716;2024-01-30T05:09:02;4.22;;;1.58;;
47772;SDS011;33534;51.028;13.716;2024-01-30T05:11:29;4.70;;;1.58;;
47772;SDS011;33534;51.028;13.716;2024-01-30T05:13:55;5.40;;;1.45;;
47772;SDS011;33534;51.028;13.716;2024-01-30T05:16:21;2.35;;;1.50;;
47772;SDS011;33534;51.028;13.716;2024-01-30T05:18:46;4.88;;;1.58;;
47772;SDS011;33534;51.028;13.716;2024-01-30T05:21:12;5.93;;;1.60;;
47772;SDS011;33534;51.028;13.716;2024-01-30T05:23:37;3.42;;;1.42;;
47772;SDS011;33534;51.028;13.716;2024-01-30T05:26:03;6.05;;;2.05;;
47772;SDS011;33534;51.028;13.716;2024-01-30T05:28:29;5.18;;;1.85;;
47772;SDS011;33534;51.028;13.716;2024-01-30T05:30:55;5.20;;;1.58;;
47772;SDS011;33534;51.028;13.716;2024-01-30T05:33:21;4.65;;;1.23;;
47772;SDS011;33534;51.028;13.716;2024-01-30T05:35:47;2.55;;;1.45;;
47772;SDS011;33534;51.028;13.716;2024-01-30T05:38:13;11.75;;;1.58;;
47772;SDS011;33534;51.028;13.716;2024-01-30T05:40:40;7.47;;;1.58;;
47772;SDS011;33534;51.028;13.716;2024-01-30T05:43:05;4.15;;;1.50;;
47772;SDS011;33534;51.028;13.716;2024-01-30T05:45:32;6.38;;;1.45;;
47772;SDS011;33534;51.028;13.716;2024-01-30T05:47:59;10.70;;;1.38;;
47772;SDS011;33534;51.028;13.716;2024-01-30T05:50:24;5.07;;;1.50;;
47772;SDS011;33534;51.028;13.716;2024-01-30T05:52:51;9.50;;;2.00;;
47772;SDS011;33534;51.028;13.716;2024-01-30T05:55:16;4.22;;;1.70;;
47772;SDS011;33534;51.028;13.716;2024-01-30T05:57:42;18.67;;;2.00;;
47772;SDS011;33534;51.028;13.716;2024-01-30T06:00:08;12.38;;;1.80;;
47772;SDS011;33534;51.028;13.716;2024-01-30T06:02:33;4.40;;;1.80;;
47772;SDS011;33534;51.028;13.716;2024-01-30T06:04:59;6.65;;;1.90;;
47772;SDS011;33534;51.028;13.716;2024-01-30T06:07:25;10.38;;;1.58;;
47772;SDS011;33534;51.028;13.716;2024-01-30T06:09:50;14.98;;;1.33;;
47772;SDS011;33534;51.028;13.716;2024-01-30T06:12:16;6.88;;;1.45;;
47772;SDS011;33534;51.028;13.716;2024-01-30T06:14:41;8.57;;;1.60;;
47772;SDS011;33534;51.028;13.716;2024-01-30T06:17:07;3.30;;;1.63;;
47772;SDS011;33534;51.028;13.716;2024-01-30T06:19:33;18.77;;;3.40;;
47772;SDS011;33534;51.028;13.716;2024-01-30T06:21:59;20.75;;;2.53;;
47772;SDS011;33534;51.028;13.716;2024-01-30T06:24:25;12.68;;;2.53;;
47772;SDS011;33534;51.028;13.716;2024-01-30T06:26:51;23.80;;;2.58;;
47772;SDS011;33534;51.028;13.716;2024-01-30T06:29:16;22.98;;;3.55;;
47772;SDS011;33534;51.028;13.716;2024-01-30T06:31:42;45.33;;;3.28;;
47772;SDS011;33534;51.028;13.716;2024-01-30T06:34:08;18.27;;;2.95;;
47772;SDS011;33534;51.028;13.716;2024-01-30T06:36:34;23.92;;;3.00;;
47772;SDS011;33534;51.028;13.716;2024-01-30T06:39:01;11.55;;;2.97;;
47772;SDS011;33534;51.028;13.716;2024-01-30T06:41:27;18.83;;;2.33;;
47772;SDS011;33534;51.028;13.716;2024-01-30T06:43:53;13.90;;;2.25;;
47772;SDS011;33534;51.028;13.716;2024-01-30T06:46:18;35.97;;;4.20;;
47772;SDS011;33534;51.028;13.716;2024-01-30T06:48:44;35.80;;;4.28;;
47772;SDS011;33534;51.028;13.716;2024-01-30T06:51:10;24.58;;;4.72;;
47772;SDS011;33534;51.028;13.716;2024-01-30T06:53:36;18.13;;;4.38;;
47772;SDS011;33534;51.028;13.716;2024-01-30T06:56:02;17.08;;;2.70;;
47772;SDS011;33534;51.028;13.716;2024-01-30T06:58:28;13.25;;;3.45;;
47772;SDS011;33534;51.028;13.716;2024-01-30T07:00:54;15.30;;;2.95;;
47772;SDS011;33534;51.028;13.716;2024-01-30T07:03:19;10.73;;;2.58;;
47772;SDS011;33534;51.028;13.716;2024-01-30T07:05:45;9.43;;;2.45;;
47772;SDS011;33534;51.028;13.716;2024-01-30T07:08:11;11.52;;;2.65;;
47772;SDS011;33534;51.028;13.716;2024-01-30T07:10:36;14.70;;;2.60;;
47772;SDS011;33534;51.028;13.716;2024-01-30T07:13:02;8.05;;;2.60;;
47772;SDS011;33534;51.028;13.716;2024-01-30T07:15:29;13.95;;;2.08;;
47772;SDS011;33534;51.028;13.716;2024-01-30T07:17:54;12.30;;;2.22;;
47772;SDS011;33534;51.028;13.716;2024-01-30T07:20:20;8.73;;;2.42;;
47772;SDS011;33534;51.028;13.716;2024-01-30T07:22:46;8.82;;;2.95;;
47772;SDS011;33534;51.028;13.716;2024-01-30T07:25:12;15.05;;;2.58;;
47772;SDS011;33534;51.028;13.716;2024-01-30T07:27:38;7.05;;;1.95;;
47772;SDS011;33534;51.028;13.716;2024-01-30T07:30:04;20.52;;;3.38;;
47772;SDS011;33534;51.028;13.716;2024-01-30T07:32:30;37.20;;;4.88;;
47772;SDS011;33534;51.028;13.716;2024-01-30T07:34:56;23.70;;;4.10;;
47772;SDS011;33534;51.028;13.716;2024-01-30T07:37:22;18.02;;;12.05;;
47772;SDS011;33534;51.028;13.716;2024-01-30T07:39:47;15.45;;;10.95;;
47772;SDS011;33534;51.028;13.716;2024-01-30T07:42:13;18.58;;;13.07;;
47772;SDS011;33534;51.028;13.716;2024-01-30T07:44:39;18.80;;;12.73;;
47772;SDS011;33534;51.028;13.716;2024-01-30T07:47:04;16.02;;;11.93;;
47772;SDS011;33534;51.028;13.716;2024-01-30T07:49:30;19.40;;;11.35;;
47772;SDS011;33534;51.028;13.716;2024-01-30T07:51:57;19.58;;;12.63;;
47772;SDS011;33534;51.028;13.716;2024-01-30T07:54:23;15.23;;;9.43;;
47772;SDS011;33534;51.028;13.716;2024-01-30T07:56:49;15.20;;;10.13;;
47772;SDS011;33534;51.028;13.716;2024-01-30T07:59:14;15.07;;;9.77;;
47772;SDS011;33534;51.028;13.716;2024-01-30T08:01:40;13.00;;;9.30;;
47772;SDS011;33534;51.028;13.716;2024-01-30T08:04:06;14.35;;;9.18;;
47772;SDS011;33534;51.028;13.716;2024-01-30T08:06:31;12.52;;;8.80;;
47772;SDS011;33534;51.028;13.716;2024-01-30T08:08:57;15.45;;;7.45;;
47772;SDS011;33534;51.028;13.716;2024-01-30T08:11:24;10.18;;;6.88;;
47772;SDS011;33534;51.028;13.716;2024-01-30T08:13:54;10.10;;;7.60;;
47772;SDS011;33534;51.028;13.716;2024-01-30T08:16:20;11.75;;;7.30;;
47772;SDS011;33534;51.028;13.716;2024-01-30T08:18:45;12.48;;;7.05;;
47772;SDS011;33534;51.028;13.716;2024-01-30T08:21:12;10.63;;;6.70;;
47772;SDS011;33534;51.028;13.716;2024-01-30T08:23:38;9.30;;;6.43;;
47772;SDS011;33534;51.028;13.716;2024-01-30T08:26:04;8.48;;;6.28;;
47772;SDS011;33534;51.028;13.716;2024-01-30T08:28:31;12.05;;;6.05;;
47772;SDS011;33534;51.028;13.716;2024-01-30T08:30:57;7.68;;;5.25;;
47772;SDS011;33534;51.028;13.716;2024-01-30T08:33:22;8.45;;;5.60;;
47772;SDS011;33534;51.028;13.716;2024-01-30T08:35:48;7.97;;;5.13;;
47772;SDS011;33534;51.028;13.716;2024-01-30T08:38:14;8.77;;;5.43;;
47772;SDS011;33534;51.028;13.716;2024-01-30T08:40:39;7.00;;;5.18;;
47772;SDS011;33534;51.028;13.716;2024-01-30T08:43:05;7.72;;;4.80;;
47772;SDS011;33534;51.028;13.716;2024-01-30T08:45:30;10.23;;;4.97;;
47772;SDS011;33534;51.028;13.716;2024-01-30T08:47:56;7.80;;;4.43;;
47772;SDS011;33534;51.028;13.716;2024-01-30T08:50:22;6.05;;;4.53;;
47772;SDS011;33534;51.028;13.716;2024-01-30T08:52:47;6.30;;;4.30;;
47772;SDS011;33534;51.028;13.716;2024-01-30T08:55:13;8.45;;;4.70;;
47772;SDS011;33534;51.028;13.716;2024-01-30T08:57:39;6.40;;;4.32;;
47772;SDS011;33534;51.028;13.716;2024-01-30T09:00:05;6.43;;;4.38;;
47772;SDS011;33534;51.028;13.716;2024-01-30T09:02:33;6.22;;;4.70;;
47772;SDS011;33534;51.028;13.716;2024-01-30T09:04:59;8.05;;;4.53;;
47772;SDS011;33534;51.028;13.716;2024-01-30T09:07:25;4.93;;;3.88;;
47772;SDS011;33534;51.028;13.716;2024-01-30T09:09:51;5.93;;;3.60;;
47772;SDS011;33534;51.028;13.716;2024-01-30T09:12:16;5.95;;;3.65;;
47772;SDS011;33534;51.028;13.716;2024-01-30T09:14:42;3.95;;;3.38;;
47772;SDS011;33534;51.028;13.716;2024-01-30T09:17:08;6.40;;;3.75;;
47772;SDS011;33534;51.028;13.716;2024-01-30T09:19:33;4.75;;;3.42;;
47772;SDS011;33534;51.028;13.716;2024-01-30T09:21:59;4.57;;;3.13;;
47772;SDS011;33534;51.028;13.716;2024-01-30T09:24:26;3.78;;;3.30;;
47772;SDS011;33534;51.028;13.716;2024-01-30T09:26:51;6.38;;;3.40;;
47772;SDS011;33534;51.028;13.716;2024-01-30T09:29:17;8.40;;;4.20;;
47772;SDS011;33534;51.028;13.716;2024-01-30T09:31:43;4.72;;;3.03;;
47772;SDS011;33534;51.028;13.716;2024-01-30T09:34:10;9.43;;;3.92;;
47772;SDS011;33534;51.028;13.716;2024-01-30T09:36:35;4.43;;;3.33;;
47772;SDS011;33534;51.028;13.716;2024-01-30T09:39:01;3.83;;;3.05;;
47772;SDS011;33534;51.028;13.716;2024-01-30T09:41:27;6.95;;;3.67;;
47772;SDS011;33534;51.028;13.716;2024-01-30T09:43:53;4.72;;;3.15;;
47772;SDS011;33534;51.028;13.716;2024-01-30T09:46:21;4.53;;;2.70;;
47772;SDS011;33534;51.028;13.716;2024-01-30T09:48:51;6.95;;;3.65;;
47772;SDS011;33534;51.028;13.716;2024-01-30T09:51:18;3.97;;;2.78;;
47772;SDS011;33534;51.028;13.716;2024-01-30T09:53:44;4.00;;;2.90;;
47772;SDS011;33534;51.028;13.716;2024-01-30T09:56:09;3.35;;;2.95;;
47772;SDS011;33534;51.028;13.716;2024-01-30T09:58:36;4.78;;;2.83;;
47772;SDS011;33534;51.028;13.716;2024-01-30T10:01:02;4.63;;;2.97;;
47772;SDS011;33534;51.028;13.716;2024-01-30T10:03:27;3.95;;;2.65;;
47772;SDS011;33534;51.028;13.716;2024-01-30T10:05:53;3.13;;;2.60;;
47772;SDS011;33534;51.028;13.716;2024-01-30T10:08:21;3.70;;;2.78;;
47772;SDS011;33534;51.028;13.716;2024-01-30T10:10:47;5.22;;;3.08;;
47772;SDS011;33534;51.028;13.716;2024-01-30T10:13:13;3.00;;;2.70;;
47772;SDS011;33534;51.028;13.716;2024-01-30T10:15:38;2.78;;;2.55;;
47772;SDS011;33534;51.028;13.716;2024-01-30T10:18:05;3.40;;;2.45;;
47772;SDS011;33534;51.028;13.716;2024-01-30T10:20:32;4.43;;;2.70;;
47772;SDS011;33534;51.028;13.716;2024-01-30T10:22:58;3.03;;;2.72;;
47772;SDS011;33534;51.028;13.716;2024-01-30T10:25:25;3.10;;;2.60;;
47772;SDS011;33534;51.028;13.716;2024-01-30T10:27:54;3.55;;;2.70;;
47772;SDS011;33534;51.028;13.716;2024-01-30T10:30:23;2.65;;;2.45;;
47772;SDS011;33534;51.028;13.716;2024-01-30T10:32:49;3.15;;;2.60;;
47772;SDS011;33534;51.028;13.716;2024-01-30T10:35:16;2.97;;;2.63;;
47772;SDS011;33534;51.028;13.716;2024-01-30T10:37:46;2.08;;;1.88;;
47772;SDS011;33534;51.028;13.716;2024-01-30T10:40:13;3.22;;;2.40;;
47772;SDS011;33534;51.028;13.716;2024-01-30T10:42:44;2.63;;;2.17;;
47772;SDS011;33534;51.028;13.716;2024-01-30T10:45:11;2.80;;;2.50;;
47772;SDS011;33534;51.028;13.716;2024-01-30T10:47:39;4.72;;;2.45;;
47772;SDS011;33534;51.028;13.716;2024-01-30T10:50:06;2.53;;;2.33;;
47772;SDS011;33534;51.028;13.716;2024-01-30T10:52:34;2.30;;;2.10;;
47772;SDS011;33534;51.028;13.716;2024-01-30T10:55:00;2.33;;;2.13;;
47772;SDS011;33534;51.028;13.716;2024-01-30T10:57:26;2.55;;;2.35;;
47772;SDS011;33534;51.028;13.716;2024-01-30T10:59:53;2.35;;;2.13;;
47772;SDS011;33534;51.028;13.716;2024-01-30T11:02:22;3.30;;;2.40;;
47772;SDS011;33534;51.028;13.716;2024-01-30T11:04:49;3.03;;;2.22;;
47772;SDS011;33534;51.028;13.716;2024-01-30T11:07:19;3.35;;;2.75;;
47772;SDS011;33534;51.028;13.716;2024-01-30T11:09:50;2.85;;;2.00;;
47772;SDS011;33534;51.028;13.716;2024-01-30T11:12:16;2.50;;;2.30;;
47772;SDS011;33534;51.028;13.716;2024-01-30T11:14:41;2.40;;;2.20;;
47772;SDS011;33534;51.028;13.716;2024-01-30T11:17:08;2.40;;;1.98;;
47772;SDS011;33534;51.028;13.716;2024-01-30T11:19:37;2.15;;;1.88;;
47772;SDS011;33534;51.028;13.716;2024-01-30T11:22:03;2.00;;;1.80;;
47772;SDS011;33534;51.028;13.716;2024-01-30T11:24:29;3.05;;;2.15;;
47772;SDS011;33534;51.028;13.716;2024-01-30T11:26:56;2.20;;;1.83;;
47772;SDS011;33534;51.028;13.716;2024-01-30T11:29:29;2.78;;;1.83;;
47772;SDS011;33534;51.028;13.716;2024-01-30T11:31:56;2.00;;;1.80;;
47772;SDS011;33534;51.028;13.716;2024-01-30T11:34:24;3.97;;;2.70;;
47772;SDS011;33534;51.028;13.716;2024-01-30T11:36:57;20.88;;;3.40;;
47772;SDS011;33534;51.028;13.716;2024-01-30T11:39:28;11.07;;;3.72;;
47772;SDS011;33534;51.028;13.716;2024-01-30T11:41:55;5.67;;;3.57;;
47772;SDS011;33534;51.028;13.716;2024-01-30T11:44:21;5.07;;;3.33;;
47772;SDS011;33534;51.028;13.716;2024-01-30T11:46:48;3.53;;;3.22;;
47772;SDS011;33534;51.028;13.716;2024-01-30T11:49:14;6.47;;;3.47;;
47772;SDS011;33534;51.028;13.716;2024-01-30T11:51:41;14.05;;;3.83;;
47772;SDS011;33534;51.028;13.716;2024-01-30T11:54:07;18.98;;;4.05;;
47772;SDS011;33534;51.028;13.716;2024-01-30T11:56:33;9.73;;;3.53;;
47772;SDS011;33534;51.028;13.716;2024-01-30T11:58:58;16.23;;;3.92;;
47772;SDS011;33534;51.028;13.716;2024-01-30T12:01:25;12.43;;;3.40;;
47772;SDS011;33534;51.028;13.716;2024-01-30T12:03:51;10.55;;;4.20;;
47772;SDS011;33534;51.028;13.716;2024-01-30T12:06:17;10.77;;;3.60;;
47772;SDS011;33534;51.028;13.716;2024-01-30T12:08:43;15.57;;;3.47;;
47772;SDS011;33534;51.028;13.716;2024-01-30T12:11:28;9.88;;;3.25;;
47772;SDS011;33534;51.028;13.716;2024-01-30T12:13:55;8.18;;;3.72;;
47772;SDS011;33534;51.028;13.716;2024-01-30T12:16:21;10.55;;;3.42;;
47772;SDS011;33534;51.028;13.716;2024-01-30T12:18:47;7.53;;;3.17;;
47772;SDS011;33534;51.028;13.716;2024-01-30T12:21:16;11.52;;;3.67;;
47772;SDS011;33534;51.028;13.716;2024-01-30T12:23:42;9.40;;;2.97;;
47772;SDS011;33534;51.028;13.716;2024-01-30T12:26:08;9.73;;;3.20;;
47772;SDS011;33534;51.028;13.716;2024-01-30T12:28:34;6.32;;;3.70;;
47772;SDS011;33534;51.028;13.716;2024-01-30T12:31:03;7.55;;;3.15;;
47772;SDS011;33534;51.028;13.716;2024-01-30T12:33:29;8.82;;;3.05;;
47772;SDS011;33534;51.028;13.716;2024-01-30T12:35:56;6.03;;;2.92;;
47772;SDS011;33534;51.028;13.716;2024-01-30T12:38:22;6.40;;;3.45;;
47772;SDS011;33534;51.028;13.716;2024-01-30T12:40:49;6.18;;;3.10;;
47772;SDS011;33534;51.028;13.716;2024-01-30T12:43:19;5.55;;;2.95;;
47772;SDS011;33534;51.028;13.716;2024-01-30T12:45:44;6.80;;;2.85;;
47772;SDS011;33534;51.028;13.716;2024-01-30T12:48:11;6.30;;;3.35;;
47772;SDS011;33534;51.028;13.716;2024-01-30T12:50:37;5.63;;;2.78;;
47772;SDS011;33534;51.028;13.716;2024-01-30T12:53:03;5.25;;;2.95;;
47772;SDS011;33534;51.028;13.716;2024-01-30T12:55:29;4.82;;;2.92;;
47772;SDS011;33534;51.028;13.716;2024-01-30T12:57:55;5.78;;;2.97;;
47772;SDS011;33534;51.028;13.716;2024-01-30T13:00:21;5.65;;;2.78;;
47772;SDS011;33534;51.028;13.716;2024-01-30T13:02:47;4.95;;;2.70;;
47772;SDS011;33534;51.028;13.716;2024-01-30T13:05:13;4.90;;;2.78;;
47772;SDS011;33534;51.028;13.716;2024-01-30T13:07:39;5.22;;;2.25;;
47772;SDS011;33534;51.028;13.716;2024-01-30T13:10:05;2.95;;;1.98;;
47772;SDS011;33534;51.028;13.716;2024-01-30T13:12:31;3.42;;;2.30;;
47772;SDS011;33534;51.028;13.716;2024-01-30T13:15:00;4.43;;;2.17;;
47772;SDS011;33534;51.028;13.716;2024-01-30T13:17:28;4.68;;;2.03;;
47772;SDS011;33534;51.028;13.716;2024-01-30T13:19:54;4.28;;;2.05;;
47772;SDS011;33534;51.028;13.716;2024-01-30T13:22:20;11.23;;;3.25;;
47772;SDS011;33534;51.028;13.716;2024-01-30T13:24:48;11.38;;;3.25;;
47772;SDS011;33534;51.028;13.716;2024-01-30T13:27:13;8.38;;;3.38;;
47772;SDS011;33534;51.028;13.716;2024-01-30T13:29:39;15.40;;;4.10;;
47772;SDS011;33534;51.028;13.716;2024-01-30T13:32:05;13.32;;;3.78;;
47772;SDS011;33534;51.028;13.716;2024-01-30T13:34:30;8.18;;;3.58;;
47772;SDS011;33534;51.028;13.716;2024-01-30T13:36:56;6.40;;;3.05;;
47772;SDS011;33534;51.028;13.716;2024-01-30T13:39:22;9.77;;;3.35;;
47772;SDS011;33534;51.028;13.716;2024-01-30T13:41:48;10.90;;;3.13;;
47772;SDS011;33534;51.028;13.716;2024-01-30T13:44:14;10.60;;;3.83;;
47772;SDS011;33534;51.028;13.716;2024-01-30T13:46:41;7.90;;;2.97;;
47772;SDS011;33534;51.028;13.716;2024-01-30T13:49:07;6.88;;;3.17;;
47772;SDS011;33534;51.028;13.716;2024-01-30T13:51:32;6.60;;;3.22;;
47772;SDS011;33534;51.028;13.716;2024-01-30T13:53:58;9.55;;;3.35;;
47772;SDS011;33534;51.028;13.716;2024-01-30T13:56:24;7.82;;;3.13;;
47772;SDS011;33534;51.028;13.716;2024-01-30T13:58:56;9.13;;;3.70;;
47772;SDS011;33534;51.028;13.716;2024-01-30T14:01:21;8.15;;;3.20;;
47772;SDS011;33534;51.028;13.716;2024-01-30T14:03:47;5.93;;;3.08;;
47772;SDS011;33534;51.028;13.716;2024-01-30T14:06:13;7.75;;;3.70;;
47772;SDS011;33534;51.028;13.716;2024-01-30T14:08:39;8.52;;;2.97;;
47772;SDS011;33534;51.028;13.716;2024-01-30T14:11:04;5.43;;;2.70;;
47772;SDS011;33534;51.028;13.716;2024-01-30T14:13:30;6.35;;;3.03;;
47772;SDS011;33534;51.028;13.716;2024-01-30T14:15:57;5.82;;;2.83;;
47772;SDS011;33534;51.028;13.716;2024-01-30T14:18:23;18.90;;;4.15;;
47772;SDS011;33534;51.028;13.716;2024-01-30T14:20:50;9.20;;;3.50;;
47772;SDS011;33534;51.028;13.716;2024-01-30T14:23:17;7.78;;;3.30;;
47772;SDS011;33534;51.028;13.716;2024-01-30T14:25:42;7.82;;;3.08;;